sensor_id;sensor_type;location;lat;lon;timestamp;P1;durP1;ratioP1;P2;durP2;ratioP2
42146;SDS011;27815;43.410;11.852;2024-03-08T00:02:36;22.35;;;12.27;;
42146;SDS011;27815;43.410;11.852;2024-03-08T00:06:39;19.88;;;11.50;;
42146;SDS011;27815;43.410;11.852;2024-03-08T00:10:42;20.40;;;11.90;;
42146;SDS011;27815;43.410;11.852;2024-03-08T00:14:46;20.65;;;11.50;;
42146;SDS011;27815;43.410;11.852;2024-03-08T00:18:49;18.23;;;10.55;;
42146;SDS011;27815;43.410;11.852;2024-03-08T00:22:51;20.55;;;10.52;;
42146;SDS011;27815;43.410;11.852;2024-03-08T00:26:55;17.48;;;10.07;;
42146;SDS011;27815;43.410;11.852;2024-03-08T00:30:58;16.42;;;10.20;;
42146;SDS011;27815;43.410;11.852;2024-03-08T00:35:01;21.00;;;12.27;;
42146;SDS011;27815;43.410;11.852;2024-03-08T00:39:04;15.30;;;8.93;;
42146;SDS011;27815;43.410;11.852;2024-03-08T00:43:09;16.45;;;10.45;;
42146;SDS011;27815;43.410;11.852;2024-03-08T00:47:13;21.75;;;12.10;;
42146;SDS011;27815;43.410;11.852;2024-03-08T00:51:17;23.00;;;14.35;;
42146;SDS011;27815;43.410;11.852;2024-03-08T00:55:20;22.40;;;14.65;;
42146;SDS011;27815;43.410;11.852;2024-03-08T00:59:24;28.80;;;17.63;;
42146;SDS011;27815;43.410;11.852;2024-03-08T01:03:27;23.40;;;14.02;;
42146;SDS011;27815;43.410;11.852;2024-03-08T01:07:30;26.95;;;16.48;;
42146;SDS011;27815;43.410;11.852;2024-03-08T01:11:34;21.50;;;13.20;;
42146;SDS011;27815;43.410;11.852;2024-03-08T01:15:37;25.60;;;14.75;;
42146;SDS011;27815;43.410;11.852;2024-03-08T01:19:43;21.27;;;12.90;;
42146;SDS011;27815;43.410;11.852;2024-03-08T01:23:50;17.95;;;11.35;;
42146;SDS011;27815;43.410;11.852;2024-03-08T01:27:53;16.65;;;9.90;;
42146;SDS011;27815;43.410;11.852;2024-03-08T01:31:56;14.05;;;8.77;;
42146;SDS011;27815;43.410;11.852;2024-03-08T01:36:00;17.38;;;10.60;;
42146;SDS011;27815;43.410;11.852;2024-03-08T01:40:03;25.15;;;14.88;;
42146;SDS011;27815;43.410;11.852;2024-03-08T01:44:06;26.48;;;15.30;;
42146;SDS011;27815;43.410;11.852;2024-03-08T01:48:12;21.15;;;13.70;;
42146;SDS011;27815;43.410;11.852;2024-03-08T01:52:15;27.63;;;16.13;;
42146;SDS011;27815;43.410;11.852;2024-03-08T01:56:20;19.08;;;11.68;;
42146;SDS011;27815;43.410;11.852;2024-03-08T02:00:23;18.45;;;12.15;;
42146;SDS011;27815;43.410;11.852;2024-03-08T02:04:28;13.77;;;7.95;;
42146;SDS011;27815;43.410;11.852;2024-03-08T02:08:33;14.52;;;8.85;;
42146;SDS011;27815;43.410;11.852;2024-03-08T02:12:37;17.42;;;9.88;;
42146;SDS011;27815;43.410;11.852;2024-03-08T02:16:40;14.35;;;7.95;;
42146;SDS011;27815;43.410;11.852;2024-03-08T02:20:43;16.48;;;10.70;;
42146;SDS011;27815;43.410;11.852;2024-03-08T02:24:49;16.63;;;8.93;;
42146;SDS011;27815;43.410;11.852;2024-03-08T02:28:53;17.08;;;10.05;;
42146;SDS011;27815;43.410;11.852;2024-03-08T02:32:56;16.88;;;9.95;;
42146;SDS011;27815;43.410;11.852;2024-03-08T02:37:00;18.15;;;11.65;;
42146;SDS011;27815;43.410;11.852;2024-03-08T02:41:03;17.23;;;8.20;;
42146;SDS011;27815;43.410;11.852;2024-03-08T02:45:06;13.73;;;8.38;;
42146;SDS011;27815;43.410;11.852;2024-03-08T02:49:12;15.23;;;9.37;;
42146;SDS011;27815;43.410;11.852;2024-03-08T02:53:15;14.35;;;7.75;;
42146;SDS011;27815;43.410;11.852;2024-03-08T02:57:17;15.40;;;9.40;;
42146;SDS011;27815;43.410;11.852;2024-03-08T03:01:21;17.27;;;10.15;;
42146;SDS011;27815;43.410;11.852;2024-03-08T03:05:24;20.50;;;12.75;;
42146;SDS011;27815;43.410;11.852;2024-03-08T03:09:27;22.63;;;12.68;;
42146;SDS011;27815;43.410;11.852;2024-03-08T03:13:30;23.50;;;13.25;;
42146;SDS011;27815;43.410;11.852;2024-03-08T03:17:33;23.63;;;14.90;;
42146;SDS011;27815;43.410;11.852;2024-03-08T03:21:36;25.20;;;14.13;;
42146;SDS011;27815;43.410;11.852;2024-03-08T03:25:40;24.10;;;13.60;;
42146;SDS011;27815;43.410;11.852;2024-03-08T03:29:44;15.25;;;10.02;;
42146;SDS011;27815;43.410;11.852;2024-03-08T03:33:52;18.55;;;10.90;;
42146;SDS011;27815;43.410;11.852;2024-03-08T03:37:55;23.02;;;14.00;;
42146;SDS011;27815;43.410;11.852;2024-03-08T03:42:04;23.23;;;14.25;;
42146;SDS011;27815;43.410;11.852;2024-03-08T03:46:07;23.55;;;13.85;;
42146;SDS011;27815;43.410;11.852;2024-03-08T03:50:13;24.90;;;13.73;;
42146;SDS011;27815;43.410;11.852;2024-03-08T03:54:16;21.13;;;12.23;;
42146;SDS011;27815;43.410;11.852;2024-03-08T03:58:19;27.98;;;16.58;;
42146;SDS011;27815;43.410;11.852;2024-03-08T04:02:25;27.42;;;12.65;;
42146;SDS011;27815;43.410;11.852;2024-03-08T04:06:28;26.63;;;16.10;;
42146;SDS011;27815;43.410;11.852;2024-03-08T04:10:32;23.40;;;12.43;;
42146;SDS011;27815;43.410;11.852;2024-03-08T04:14:35;23.77;;;13.82;;
42146;SDS011;27815;43.410;11.852;2024-03-08T04:18:38;19.15;;;11.20;;
42146;SDS011;27815;43.410;11.852;2024-03-08T04:22:42;20.02;;;11.35;;
42146;SDS011;27815;43.410;11.852;2024-03-08T04:26:46;17.80;;;11.38;;
42146;SDS011;27815;43.410;11.852;2024-03-08T04:30:49;24.73;;;13.05;;
42146;SDS011;27815;43.410;11.852;2024-03-08T04:34:53;20.15;;;11.23;;
42146;SDS011;27815;43.410;11.852;2024-03-08T04:38:55;14.73;;;8.27;;
42146;SDS011;27815;43.410;11.852;2024-03-08T04:42:58;15.52;;;8.73;;
42146;SDS011;27815;43.410;11.852;2024-03-08T04:47:01;16.70;;;8.63;;
42146;SDS011;27815;43.410;11.852;2024-03-08T04:51:04;17.60;;;10.48;;
42146;SDS011;27815;43.410;11.852;2024-03-08T04:55:08;17.80;;;10.15;;
42146;SDS011;27815;43.410;11.852;2024-03-08T04:59:11;18.85;;;10.93;;
42146;SDS011;27815;43.410;11.852;2024-03-08T05:03:14;23.67;;;11.85;;
42146;SDS011;27815;43.410;11.852;2024-03-08T05:07:18;24.27;;;14.40;;
42146;SDS011;27815;43.410;11.852;2024-03-08T05:11:21;27.15;;;14.05;;
42146;SDS011;27815;43.410;11.852;2024-03-08T05:15:24;24.58;;;13.18;;
42146;SDS011;27815;43.410;11.852;2024-03-08T05:19:27;20.20;;;11.75;;
42146;SDS011;27815;43.410;11.852;2024-03-08T05:23:36;28.73;;;13.73;;
42146;SDS011;27815;43.410;11.852;2024-03-08T05:27:41;62.15;;;14.68;;
42146;SDS011;27815;43.410;11.852;2024-03-08T05:35:50;61.60;;;17.50;;
42146;SDS011;27815;43.410;11.852;2024-03-08T05:39:54;35.17;;;15.90;;
42146;SDS011;27815;43.410;11.852;2024-03-08T05:43:57;34.42;;;15.43;;
42146;SDS011;27815;43.410;11.852;2024-03-08T05:48:00;59.38;;;15.43;;
42146;SDS011;27815;43.410;11.852;2024-03-08T05:52:03;42.97;;;17.58;;
42146;SDS011;27815;43.410;11.852;2024-03-08T05:56:07;57.20;;;19.30;;
42146;SDS011;27815;43.410;11.852;2024-03-08T06:00:11;53.50;;;17.23;;
42146;SDS011;27815;43.410;11.852;2024-03-08T06:04:15;61.10;;;20.63;;
42146;SDS011;27815;43.410;11.852;2024-03-08T06:08:20;53.35;;;17.05;;
42146;SDS011;27815;43.410;11.852;2024-03-08T06:12:23;48.40;;;15.65;;
42146;SDS011;27815;43.410;11.852;2024-03-08T06:16:31;42.85;;;15.45;;
42146;SDS011;27815;43.410;11.852;2024-03-08T06:20:36;60.30;;;23.17;;
42146;SDS011;27815;43.410;11.852;2024-03-08T06:24:39;68.80;;;20.90;;
42146;SDS011;27815;43.410;11.852;2024-03-08T06:28:42;112.80;;;30.20;;
42146;SDS011;27815;43.410;11.852;2024-03-08T06:32:45;76.68;;;23.67;;
42146;SDS011;27815;43.410;11.852;2024-03-08T06:36:48;105.75;;;22.55;;
42146;SDS011;27815;43.410;11.852;2024-03-08T06:40:51;86.15;;;18.90;;
42146;SDS011;27815;43.410;11.852;2024-03-08T06:44:57;97.40;;;21.02;;
42146;SDS011;27815;43.410;11.852;2024-03-08T06:49:08;83.53;;;21.77;;
42146;SDS011;27815;43.410;11.852;2024-03-08T06:53:13;120.32;;;23.00;;
42146;SDS011;27815;43.410;11.852;2024-03-08T06:57:25;93.50;;;20.70;;
42146;SDS011;27815;43.410;11.852;2024-03-08T07:01:30;129.27;;;25.40;;
42146;SDS011;27815;43.410;11.852;2024-03-08T07:05:36;88.87;;;21.83;;
42146;SDS011;27815;43.410;11.852;2024-03-08T07:09:39;118.70;;;23.45;;
42146;SDS011;27815;43.410;11.852;2024-03-08T07:13:45;90.32;;;21.38;;
42146;SDS011;27815;43.410;11.852;2024-03-08T07:17:49;90.03;;;20.13;;
42146;SDS011;27815;43.410;11.852;2024-03-08T07:21:55;105.57;;;20.17;;
42146;SDS011;27815;43.410;11.852;2024-03-08T07:25:59;80.13;;;20.70;;
42146;SDS011;27815;43.410;11.852;2024-03-08T07:30:03;112.07;;;21.60;;
42146;SDS011;27815;43.410;11.852;2024-03-08T07:34:10;113.38;;;21.60;;
42146;SDS011;27815;43.410;11.852;2024-03-08T07:38:13;104.30;;;20.48;;
42146;SDS011;27815;43.410;11.852;2024-03-08T07:42:16;115.38;;;20.48;;
42146;SDS011;27815;43.410;11.852;2024-03-08T07:46:20;178.88;;;22.60;;
42146;SDS011;27815;43.410;11.852;2024-03-08T07:50:23;211.05;;;23.40;;
42146;SDS011;27815;43.410;11.852;2024-03-08T07:54:26;65.18;;;16.20;;
42146;SDS011;27815;43.410;11.852;2024-03-08T07:58:28;120.20;;;16.98;;
42146;SDS011;27815;43.410;11.852;2024-03-08T08:02:32;157.45;;;19.17;;
42146;SDS011;27815;43.410;11.852;2024-03-08T08:06:40;160.15;;;23.15;;
42146;SDS011;27815;43.410;11.852;2024-03-08T08:10:43;78.45;;;17.70;;
42146;SDS011;27815;43.410;11.852;2024-03-08T08:14:46;101.95;;;16.92;;
42146;SDS011;27815;43.410;11.852;2024-03-08T08:18:49;144.43;;;19.98;;
42146;SDS011;27815;43.410;11.852;2024-03-08T08:22:52;105.28;;;16.83;;
42146;SDS011;27815;43.410;11.852;2024-03-08T08:26:57;81.28;;;15.30;;
42146;SDS011;27815;43.410;11.852;2024-03-08T08:31:00;178.55;;;22.30;;
42146;SDS011;27815;43.410;11.852;2024-03-08T08:35:03;186.13;;;20.58;;
42146;SDS011;27815;43.410;11.852;2024-03-08T08:39:07;104.72;;;18.08;;
42146;SDS011;27815;43.410;11.852;2024-03-08T08:43:15;36.72;;;15.23;;
42146;SDS011;27815;43.410;11.852;2024-03-08T08:47:20;64.90;;;15.07;;
42146;SDS011;27815;43.410;11.852;2024-03-08T08:51:22;52.28;;;16.33;;
42146;SDS011;27815;43.410;11.852;2024-03-08T08:55:25;33.65;;;14.63;;
42146;SDS011;27815;43.410;11.852;2024-03-08T08:59:29;41.17;;;14.45;;
42146;SDS011;27815;43.410;11.852;2024-03-08T09:03:32;61.20;;;18.08;;
42146;SDS011;27815;43.410;11.852;2024-03-08T09:07:37;61.80;;;19.20;;
42146;SDS011;27815;43.410;11.852;2024-03-08T09:11:39;46.58;;;17.35;;
42146;SDS011;27815;43.410;11.852;2024-03-08T09:15:44;76.45;;;20.05;;
42146;SDS011;27815;43.410;11.852;2024-03-08T09:19:47;40.35;;;16.27;;
42146;SDS011;27815;43.410;11.852;2024-03-08T09:23:50;53.22;;;18.13;;
42146;SDS011;27815;43.410;11.852;2024-03-08T09:27:53;47.25;;;18.50;;
42146;SDS011;27815;43.410;11.852;2024-03-08T09:31:57;31.67;;;16.42;;
42146;SDS011;27815;43.410;11.852;2024-03-08T09:36:00;40.65;;;18.67;;
42146;SDS011;27815;43.410;11.852;2024-03-08T09:40:05;33.95;;;17.70;;
42146;SDS011;27815;43.410;11.852;2024-03-08T09:44:12;36.08;;;19.02;;
42146;SDS011;27815;43.410;11.852;2024-03-08T09:48:16;45.65;;;24.95;;
42146;SDS011;27815;43.410;11.852;2024-03-08T09:52:23;58.15;;;30.92;;
42146;SDS011;27815;43.410;11.852;2024-03-08T09:56:27;52.03;;;28.00;;
42146;SDS011;27815;43.410;11.852;2024-03-08T10:00:30;44.60;;;23.20;;
42146;SDS011;27815;43.410;11.852;2024-03-08T10:04:33;39.10;;;22.55;;
42146;SDS011;27815;43.410;11.852;2024-03-08T10:08:36;37.10;;;22.52;;
42146;SDS011;27815;43.410;11.852;2024-03-08T10:12:41;39.00;;;23.00;;
42146;SDS011;27815;43.410;11.852;2024-03-08T10:16:58;37.33;;;21.83;;
42146;SDS011;27815;43.410;11.852;2024-03-08T10:21:07;35.33;;;20.20;;
42146;SDS011;27815;43.410;11.852;2024-03-08T10:25:27;26.40;;;17.13;;
42146;SDS011;27815;43.410;11.852;2024-03-08T10:29:33;25.80;;;15.00;;
42146;SDS011;27815;43.410;11.852;2024-03-08T10:33:37;25.48;;;15.93;;
42146;SDS011;27815;43.410;11.852;2024-03-08T10:37:52;23.70;;;14.98;;
42146;SDS011;27815;43.410;11.852;2024-03-08T10:42:11;21.25;;;14.13;;
42146;SDS011;27815;43.410;11.852;2024-03-08T10:46:29;21.40;;;14.20;;
42146;SDS011;27815;43.410;11.852;2024-03-08T10:50:47;20.40;;;13.85;;
42146;SDS011;27815;43.410;11.852;2024-03-08T10:54:54;19.55;;;13.30;;
42146;SDS011;27815;43.410;11.852;2024-03-08T10:59:03;19.38;;;13.73;;
42146;SDS011;27815;43.410;11.852;2024-03-08T11:07:51;17.23;;;10.25;;
42146;SDS011;27815;43.410;11.852;2024-03-08T11:16:38;14.70;;;9.98;;
42146;SDS011;27815;43.410;11.852;2024-03-08T11:20:47;19.23;;;12.25;;
42146;SDS011;27815;43.410;11.852;2024-03-08T11:25:07;9.25;;;5.50;;
42146;SDS011;27815;43.410;11.852;2024-03-08T11:33:40;6.28;;;4.65;;
42146;SDS011;27815;43.410;11.852;2024-03-08T11:37:49;7.53;;;5.00;;
42146;SDS011;27815;43.410;11.852;2024-03-08T11:41:57;8.23;;;4.38;;
42146;SDS011;27815;43.410;11.852;2024-03-08T11:46:09;6.03;;;3.22;;
42146;SDS011;27815;43.410;11.852;2024-03-08T11:50:15;7.38;;;3.15;;
42146;SDS011;27815;43.410;11.852;2024-03-08T11:54:23;6.93;;;3.05;;
42146;SDS011;27815;43.410;11.852;2024-03-08T12:02:46;6.38;;;3.50;;
42146;SDS011;27815;43.410;11.852;2024-03-08T12:11:03;7.13;;;3.47;;
42146;SDS011;27815;43.410;11.852;2024-03-08T12:15:13;5.95;;;2.78;;
42146;SDS011;27815;43.410;11.852;2024-03-08T12:19:27;5.38;;;2.28;;
42146;SDS011;27815;43.410;11.852;2024-03-08T12:23:40;4.40;;;2.03;;
42146;SDS011;27815;43.410;11.852;2024-03-08T12:27:43;3.50;;;2.00;;
42146;SDS011;27815;43.410;11.852;2024-03-08T12:31:53;5.53;;;2.20;;
42146;SDS011;27815;43.410;11.852;2024-03-08T12:36:04;4.05;;;2.28;;
42146;SDS011;27815;43.410;11.852;2024-03-08T12:40:09;3.95;;;2.30;;
42146;SDS011;27815;43.410;11.852;2024-03-08T12:44:15;3.70;;;2.10;;
42146;SDS011;27815;43.410;11.852;2024-03-08T12:48:23;4.25;;;2.50;;
42146;SDS011;27815;43.410;11.852;2024-03-08T12:52:29;4.50;;;2.05;;
42146;SDS011;27815;43.410;11.852;2024-03-08T12:56:42;4.20;;;2.10;;
42146;SDS011;27815;43.410;11.852;2024-03-08T13:00:51;5.55;;;2.33;;
42146;SDS011;27815;43.410;11.852;2024-03-08T13:04:58;4.05;;;2.50;;
42146;SDS011;27815;43.410;11.852;2024-03-08T13:09:02;5.80;;;2.03;;
42146;SDS011;27815;43.410;11.852;2024-03-08T13:13:10;4.22;;;2.05;;
42146;SDS011;27815;43.410;11.852;2024-03-08T13:17:26;4.43;;;2.10;;
42146;SDS011;27815;43.410;11.852;2024-03-08T13:21:35;3.70;;;2.05;;
42146;SDS011;27815;43.410;11.852;2024-03-08T13:25:40;5.55;;;2.95;;
42146;SDS011;27815;43.410;11.852;2024-03-08T13:29:44;4.80;;;2.33;;
42146;SDS011;27815;43.410;11.852;2024-03-08T13:33:51;6.45;;;3.25;;
42146;SDS011;27815;43.410;11.852;2024-03-08T13:38:02;4.30;;;2.65;;
42146;SDS011;27815;43.410;11.852;2024-03-08T13:42:15;5.03;;;2.25;;
42146;SDS011;27815;43.410;11.852;2024-03-08T13:46:18;6.45;;;2.47;;
42146;SDS011;27815;43.410;11.852;2024-03-08T13:50:27;6.55;;;3.10;;
42146;SDS011;27815;43.410;11.852;2024-03-08T13:54:34;5.40;;;2.53;;
42146;SDS011;27815;43.410;11.852;2024-03-08T13:58:38;6.85;;;2.08;;
42146;SDS011;27815;43.410;11.852;2024-03-08T14:02:45;6.05;;;3.00;;
42146;SDS011;27815;43.410;11.852;2024-03-08T14:06:50;6.68;;;3.78;;
42146;SDS011;27815;43.410;11.852;2024-03-08T14:11:04;7.18;;;3.33;;
42146;SDS011;27815;43.410;11.852;2024-03-08T14:15:19;6.75;;;3.05;;
42146;SDS011;27815;43.410;11.852;2024-03-08T14:19:25;5.90;;;2.35;;
42146;SDS011;27815;43.410;11.852;2024-03-08T14:23:34;9.15;;;4.10;;
42146;SDS011;27815;43.410;11.852;2024-03-08T14:27:56;9.20;;;3.42;;
42146;SDS011;27815;43.410;11.852;2024-03-08T14:32:04;5.82;;;2.88;;
42146;SDS011;27815;43.410;11.852;2024-03-08T14:36:10;5.80;;;3.20;;
42146;SDS011;27815;43.410;11.852;2024-03-08T14:40:18;6.75;;;3.63;;
42146;SDS011;27815;43.410;11.852;2024-03-08T14:44:27;6.38;;;3.38;;
42146;SDS011;27815;43.410;11.852;2024-03-08T14:48:36;4.95;;;2.70;;
42146;SDS011;27815;43.410;11.852;2024-03-08T14:52:39;4.75;;;2.67;;
42146;SDS011;27815;43.410;11.852;2024-03-08T14:56:55;4.80;;;2.63;;
42146;SDS011;27815;43.410;11.852;2024-03-08T15:01:06;5.65;;;2.58;;
42146;SDS011;27815;43.410;11.852;2024-03-08T15:05:13;5.25;;;2.60;;
42146;SDS011;27815;43.410;11.852;2024-03-08T15:13:31;4.35;;;1.90;;
42146;SDS011;27815;43.410;11.852;2024-03-08T15:17:50;9.85;;;4.25;;
42146;SDS011;27815;43.410;11.852;2024-03-08T15:21:59;7.97;;;3.22;;
42146;SDS011;27815;43.410;11.852;2024-03-08T15:26:07;6.97;;;2.92;;
42146;SDS011;27815;43.410;11.852;2024-03-08T15:30:11;6.13;;;2.58;;
42146;SDS011;27815;43.410;11.852;2024-03-08T15:34:34;12.32;;;6.30;;
42146;SDS011;27815;43.410;11.852;2024-03-08T15:42:56;11.75;;;5.85;;
42146;SDS011;27815;43.410;11.852;2024-03-08T15:47:05;7.35;;;4.50;;
42146;SDS011;27815;43.410;11.852;2024-03-08T15:51:09;8.02;;;4.20;;
42146;SDS011;27815;43.410;11.852;2024-03-08T15:55:16;9.52;;;4.18;;
42146;SDS011;27815;43.410;11.852;2024-03-08T15:59:27;6.28;;;3.40;;
42146;SDS011;27815;43.410;11.852;2024-03-08T16:03:31;6.57;;;3.17;;
42146;SDS011;27815;43.410;11.852;2024-03-08T16:07:41;7.22;;;3.80;;
42146;SDS011;27815;43.410;11.852;2024-03-08T16:11:52;8.40;;;4.13;;
42146;SDS011;27815;43.410;11.852;2024-03-08T16:15:56;11.32;;;3.85;;
42146;SDS011;27815;43.410;11.852;2024-03-08T16:20:07;13.93;;;8.30;;
42146;SDS011;27815;43.410;11.852;2024-03-08T16:24:16;9.27;;;4.40;;
42146;SDS011;27815;43.410;11.852;2024-03-08T16:28:21;10.10;;;5.88;;
42146;SDS011;27815;43.410;11.852;2024-03-08T16:32:34;11.05;;;5.82;;
42146;SDS011;27815;43.410;11.852;2024-03-08T16:36:39;16.00;;;7.57;;
42146;SDS011;27815;43.410;11.852;2024-03-08T16:40:43;13.25;;;7.03;;
42146;SDS011;27815;43.410;11.852;2024-03-08T16:44:50;14.88;;;9.00;;
42146;SDS011;27815;43.410;11.852;2024-03-08T16:48:56;9.52;;;6.25;;
42146;SDS011;27815;43.410;11.852;2024-03-08T16:53:05;12.18;;;6.40;;
42146;SDS011;27815;43.410;11.852;2024-03-08T16:57:11;10.40;;;5.40;;
42146;SDS011;27815;43.410;11.852;2024-03-08T17:01:18;10.98;;;4.75;;
42146;SDS011;27815;43.410;11.852;2024-03-08T17:05:28;11.95;;;5.43;;
42146;SDS011;27815;43.410;11.852;2024-03-08T17:09:34;9.43;;;5.47;;
42146;SDS011;27815;43.410;11.852;2024-03-08T17:13:40;8.77;;;5.23;;
42146;SDS011;27815;43.410;11.852;2024-03-08T17:17:45;9.00;;;4.85;;
42146;SDS011;27815;43.410;11.852;2024-03-08T17:21:53;8.73;;;5.55;;
42146;SDS011;27815;43.410;11.852;2024-03-08T17:25:59;14.88;;;8.95;;
42146;SDS011;27815;43.410;11.852;2024-03-08T17:30:10;13.32;;;8.57;;
42146;SDS011;27815;43.410;11.852;2024-03-08T17:34:27;13.50;;;8.55;;
42146;SDS011;27815;43.410;11.852;2024-03-08T17:38:38;12.30;;;7.05;;
42146;SDS011;27815;43.410;11.852;2024-03-08T17:42:56;12.18;;;7.43;;
42146;SDS011;27815;43.410;11.852;2024-03-08T17:47:11;10.07;;;6.07;;
42146;SDS011;27815;43.410;11.852;2024-03-08T17:51:15;8.05;;;4.97;;
42146;SDS011;27815;43.410;11.852;2024-03-08T17:55:18;8.27;;;4.70;;
42146;SDS011;27815;43.410;11.852;2024-03-08T17:59:26;9.77;;;5.90;;
42146;SDS011;27815;43.410;11.852;2024-03-08T18:03:32;10.52;;;7.55;;
42146;SDS011;27815;43.410;11.852;2024-03-08T18:07:37;11.52;;;7.00;;
42146;SDS011;27815;43.410;11.852;2024-03-08T18:11:50;11.00;;;6.95;;
42146;SDS011;27815;43.410;11.852;2024-03-08T18:15:59;12.30;;;5.28;;
42146;SDS011;27815;43.410;11.852;2024-03-08T18:20:04;11.88;;;6.45;;
42146;SDS011;27815;43.410;11.852;2024-03-08T18:24:13;7.85;;;3.83;;
42146;SDS011;27815;43.410;11.852;2024-03-08T18:28:19;5.60;;;3.40;;
42146;SDS011;27815;43.410;11.852;2024-03-08T18:32:25;14.00;;;7.60;;
42146;SDS011;27815;43.410;11.852;2024-03-08T18:36:28;8.70;;;4.45;;
42146;SDS011;27815;43.410;11.852;2024-03-08T18:40:38;11.90;;;5.63;;
42146;SDS011;27815;43.410;11.852;2024-03-08T18:44:49;10.60;;;6.20;;
42146;SDS011;27815;43.410;11.852;2024-03-08T18:49:05;9.60;;;5.32;;
42146;SDS011;27815;43.410;11.852;2024-03-08T18:53:10;7.70;;;4.43;;
42146;SDS011;27815;43.410;11.852;2024-03-08T18:57:19;10.45;;;4.57;;
42146;SDS011;27815;43.410;11.852;2024-03-08T19:01:24;7.03;;;3.47;;
42146;SDS011;27815;43.410;11.852;2024-03-08T19:05:36;19.98;;;11.20;;
42146;SDS011;27815;43.410;11.852;2024-03-08T19:09:48;15.02;;;8.88;;
42146;SDS011;27815;43.410;11.852;2024-03-08T19:13:52;7.57;;;3.80;;
42146;SDS011;27815;43.410;11.852;2024-03-08T19:17:57;7.82;;;4.60;;
42146;SDS011;27815;43.410;11.852;2024-03-08T19:22:01;8.45;;;5.10;;
42146;SDS011;27815;43.410;11.852;2024-03-08T19:26:06;7.65;;;4.72;;
42146;SDS011;27815;43.410;11.852;2024-03-08T19:30:16;9.82;;;5.97;;
42146;SDS011;27815;43.410;11.852;2024-03-08T19:34:21;8.05;;;3.90;;
42146;SDS011;27815;43.410;11.852;2024-03-08T19:38:30;8.20;;;4.93;;
42146;SDS011;27815;43.410;11.852;2024-03-08T19:42:36;10.38;;;5.90;;
42146;SDS011;27815;43.410;11.852;2024-03-08T19:46:42;12.85;;;7.68;;
42146;SDS011;27815;43.410;11.852;2024-03-08T19:50:50;10.35;;;6.25;;
42146;SDS011;27815;43.410;11.852;2024-03-08T19:54:57;12.88;;;7.70;;
42146;SDS011;27815;43.410;11.852;2024-03-08T19:59:06;12.60;;;8.45;;
42146;SDS011;27815;43.410;11.852;2024-03-08T20:03:12;12.15;;;7.38;;
42146;SDS011;27815;43.410;11.852;2024-03-08T20:07:25;9.57;;;6.32;;
42146;SDS011;27815;43.410;11.852;2024-03-08T20:11:29;9.30;;;5.35;;
42146;SDS011;27815;43.410;11.852;2024-03-08T20:15:33;8.60;;;4.05;;
42146;SDS011;27815;43.410;11.852;2024-03-08T20:19:45;7.07;;;4.10;;
42146;SDS011;27815;43.410;11.852;2024-03-08T20:23:51;6.28;;;3.92;;
42146;SDS011;27815;43.410;11.852;2024-03-08T20:27:56;6.78;;;4.43;;
42146;SDS011;27815;43.410;11.852;2024-03-08T20:32:06;7.00;;;3.50;;
42146;SDS011;27815;43.410;11.852;2024-03-08T20:36:12;7.32;;;3.65;;
42146;SDS011;27815;43.410;11.852;2024-03-08T20:40:28;6.55;;;3.63;;
42146;SDS011;27815;43.410;11.852;2024-03-08T20:44:39;7.32;;;3.80;;
42146;SDS011;27815;43.410;11.852;2024-03-08T20:48:46;6.82;;;3.40;;
42146;SDS011;27815;43.410;11.852;2024-03-08T20:52:54;9.40;;;3.70;;
42146;SDS011;27815;43.410;11.852;2024-03-08T20:56:57;7.90;;;3.72;;
42146;SDS011;27815;43.410;11.852;2024-03-08T21:05:17;13.18;;;7.60;;
42146;SDS011;27815;43.410;11.852;2024-03-08T21:09:23;9.35;;;4.55;;
42146;SDS011;27815;43.410;11.852;2024-03-08T21:13:28;6.55;;;4.35;;
42146;SDS011;27815;43.410;11.852;2024-03-08T21:17:32;6.13;;;2.95;;
42146;SDS011;27815;43.410;11.852;2024-03-08T21:21:40;6.75;;;3.30;;
42146;SDS011;27815;43.410;11.852;2024-03-08T21:25:43;5.90;;;2.85;;
42146;SDS011;27815;43.410;11.852;2024-03-08T21:29:49;4.78;;;2.50;;
42146;SDS011;27815;43.410;11.852;2024-03-08T21:33:53;5.25;;;2.35;;
42146;SDS011;27815;43.410;11.852;2024-03-08T21:37:58;6.53;;;2.60;;
42146;SDS011;27815;43.410;11.852;2024-03-08T21:42:06;6.85;;;3.60;;
42146;SDS011;27815;43.410;11.852;2024-03-08T21:46:15;7.97;;;4.10;;
42146;SDS011;27815;43.410;11.852;2024-03-08T21:50:21;7.28;;;4.00;;
42146;SDS011;27815;43.410;11.852;2024-03-08T21:54:32;7.30;;;3.50;;
42146;SDS011;27815;43.410;11.852;2024-03-08T21:58:44;9.73;;;3.45;;
42146;SDS011;27815;43.410;11.852;2024-03-08T22:02:48;12.27;;;4.20;;
42146;SDS011;27815;43.410;11.852;2024-03-08T22:06:52;6.90;;;3.78;;
42146;SDS011;27815;43.410;11.852;2024-03-08T22:10:59;7.10;;;4.05;;
42146;SDS011;27815;43.410;11.852;2024-03-08T22:15:03;6.38;;;2.60;;
42146;SDS011;27815;43.410;11.852;2024-03-08T22:19:11;7.93;;;3.17;;
42146;SDS011;27815;43.410;11.852;2024-03-08T22:23:20;7.22;;;3.83;;
42146;SDS011;27815;43.410;11.852;2024-03-08T22:27:28;8.15;;;4.45;;
42146;SDS011;27815;43.410;11.852;2024-03-08T22:31:32;9.43;;;3.83;;
42146;SDS011;27815;43.410;11.852;2024-03-08T22:35:44;9.95;;;4.82;;
42146;SDS011;27815;43.410;11.852;2024-03-08T22:39:48;9.50;;;4.57;;
42146;SDS011;27815;43.410;11.852;2024-03-08T22:43:53;12.18;;;6.10;;
42146;SDS011;27815;43.410;11.852;2024-03-08T22:47:58;10.77;;;5.32;;
42146;SDS011;27815;43.410;11.852;2024-03-08T22:52:03;6.83;;;4.20;;
42146;SDS011;27815;43.410;11.852;2024-03-08T22:56:06;7.15;;;4.18;;
42146;SDS011;27815;43.410;11.852;2024-03-08T23:00:10;7.38;;;4.47;;
42146;SDS011;27815;43.410;11.852;2024-03-08T23:08:29;9.73;;;4.70;;
42146;SDS011;27815;43.410;11.852;2024-03-08T23:12:32;8.70;;;4.40;;
42146;SDS011;27815;43.410;11.852;2024-03-08T23:20:42;10.30;;;4.18;;
42146;SDS011;27815;43.410;11.852;2024-03-08T23:24:45;5.13;;;3.25;;
42146;SDS011;27815;43.410;11.852;2024-03-08T23:28:49;7.13;;;3.55;;
42146;SDS011;27815;43.410;11.852;2024-03-08T23:32:52;9.77;;;3.20;;
42146;SDS011;27815;43.410;11.852;2024-03-08T23:36:55;6.38;;;2.80;;
42146;SDS011;27815;43.410;11.852;2024-03-08T23:40:58;5.10;;;2.90;;
42146;SDS011;27815;43.410;11.852;2024-03-08T23:45:01;5.30;;;2.88;;
42146;SDS011;27815;43.410;11.852;2024-03-08T23:49:04;5.05;;;2.75;;
42146;SDS011;27815;43.410;11.852;2024-03-08T23:53:08;9.60;;;4.05;;
42146;SDS011;27815;43.410;11.852;2024-03-08T23:57:12;6.88;;;3.65;;
